Time;durP1;ratioP1;P1;durP2;ratioP2;P2;SDS_P1;SDS_P2;PMS_P1;PMS_P2;Temp;Humidity;BMP_temperature;BMP_pressure;BME280_temperature;BME280_humidity;BME280_pressure;Samples;Min_cycle;Max_cycle;Signal;HPM_P1;HPM_P2
2022/02/27 00:01:40;;;;;;;1.65;0.10;;;21.20;44.50;;;;;;5066639;28;20048;-47
2022/02/27 00:04:07;;;;;;;1.55;0.60;;;21.10;44.60;;;;;;5068751;28;20166;-48
2022/02/27 00:06:37;;;;;;;2.60;0.20;;;21.00;44.60;;;;;;5066785;28;20044;-47
2022/02/27 00:09:04;;;;;;;1.60;0.50;;;21.00;44.80;;;;;;5066862;28;20122;-47
2022/02/27 00:11:31;;;;;;;3.83;0.20;;;21.00;44.80;;;;;;5066673;28;20500;-46
2022/02/27 00:14:00;;;;;;;0.50;0.17;;;20.90;45.00;;;;;;5067017;28;20056;-44
2022/02/27 00:16:28;;;;;;;0.55;0.45;;;20.90;45.30;;;;;;5066671;28;20165;-48
2022/02/27 00:18:55;;;;;;;0.85;0.10;;;20.90;45.30;;;;;;5068173;28;20056;-47
2022/02/27 00:21:22;;;;;;;1.45;0.40;;;20.80;45.40;;;;;;5066337;28;20394;-47
2022/02/27 00:23:50;;;;;;;1.30;0.32;;;20.80;45.40;;;;;;5066025;28;20088;-47
2022/02/27 00:26:17;;;;;;;3.25;0.63;;;20.80;45.50;;;;;;5064912;28;20087;-44
2022/02/27 00:28:44;;;;;;;0.82;0.20;;;20.70;45.60;;;;;;5065673;28;20912;-45
2022/02/27 00:31:11;;;;;;;1.35;0.35;;;20.70;45.90;;;;;;5067996;28;20048;-45
2022/02/27 00:33:41;;;;;;;3.50;0.15;;;20.70;45.90;;;;;;5065973;28;20117;-49
2022/02/27 00:36:08;;;;;;;0.85;0.30;;;20.60;46.00;;;;;;5066081;28;20036;-49
2022/02/27 00:38:35;;;;;;;2.65;0.10;;;20.60;46.20;;;;;;5065592;28;20040;-47
2022/02/27 00:41:05;;;;;;;1.48;0.20;;;20.50;46.00;;;;;;5048450;28;20074;-49
2022/02/27 00:43:32;;;;;;;1.05;0.10;;;20.60;46.40;;;;;;5065775;28;20094;-47
2022/02/27 00:45:59;;;;;;;0.85;0.10;;;20.50;46.40;;;;;;5065261;28;20055;-45
2022/02/27 00:48:26;;;;;;;1.67;0.80;;;20.50;46.60;;;;;;5066068;28;20041;-44
2022/02/27 00:50:53;;;;;;;0.60;0.20;;;20.50;46.80;;;;;;5064904;28;20036;-49
2022/02/27 00:53:21;;;;;;;0.28;0.28;;;20.50;46.70;;;;;;5065239;28;20068;-45
2022/02/27 00:55:48;;;;;;;1.10;0.10;;;20.40;46.80;;;;;;5060281;28;20047;-48
2022/02/27 00:58:16;;;;;;;1.63;0.20;;;20.40;46.60;;;;;;5049325;28;20048;-45
2022/02/27 01:00:43;;;;;;;1.25;0.28;;;20.40;46.60;;;;;;5047492;28;20048;-47
2022/02/27 01:03:11;;;;;;;0.20;0.10;;;20.40;46.50;;;;;;5065422;28;20122;-49
2022/02/27 01:05:38;;;;;;;1.27;0.10;;;20.40;46.50;;;;;;5047406;28;20421;-47
2022/02/27 01:08:06;;;;;;;1.77;0.20;;;20.30;46.40;;;;;;5065171;28;20045;-46
2022/02/27 01:10:33;;;;;;;1.23;0.10;;;20.30;46.40;;;;;;5065382;28;20064;-47
2022/02/27 01:13:02;;;;;;;0.45;0.20;;;20.30;46.60;;;;;;5066833;28;20067;-46
2022/02/27 01:15:31;;;;;;;1.08;0.65;;;20.30;46.40;;;;;;5047763;28;20048;-50
2022/02/27 01:17:58;;;;;;;2.15;0.10;;;20.30;46.50;;;;;;5065481;28;20389;-44
2022/02/27 01:20:25;;;;;;;1.67;0.10;;;20.20;46.60;;;;;;5065515;28;20464;-45
2022/02/27 01:22:52;;;;;;;0.40;0.10;;;20.20;46.50;;;;;;5047311;28;20119;-44
2022/02/27 01:25:20;;;;;;;0.90;0.20;;;20.20;46.60;;;;;;5066389;28;20047;-45
2022/02/27 01:27:48;;;;;;;1.15;0.30;;;20.20;46.50;;;;;;5065790;28;20127;-46
2022/02/27 01:30:15;;;;;;;1.58;0.15;;;20.20;46.60;;;;;;5065389;28;20139;-45
2022/02/27 01:32:43;;;;;;;4.53;0.77;;;20.20;46.50;;;;;;5047380;28;20538;-48
2022/02/27 01:35:11;;;;;;;3.85;0.60;;;20.20;46.50;;;;;;5059076;28;20044;-54
2022/02/27 01:37:38;;;;;;;0.70;0.10;;;20.10;46.60;;;;;;5064028;28;20048;-46
2022/02/27 01:40:07;;;;;;;5.90;0.52;;;20.10;46.70;;;;;;5065703;28;20054;-47
2022/02/27 01:42:34;;;;;;;0.90;0.40;;;20.10;46.50;;;;;;5063355;28;20049;-49
2022/02/27 01:45:04;;;;;;;0.10;0.10;;;20.10;46.50;;;;;;5059352;28;20036;-47
2022/02/27 01:47:33;;;;;;;0.20;0.10;;;20.10;46.50;;;;;;5058993;28;20089;-50
2022/02/27 01:50:03;;;;;;;0.30;0.17;;;20.00;46.50;;;;;;5065170;28;20492;-49
2022/02/27 01:52:30;;;;;;;1.77;0.85;;;20.10;46.50;;;;;;5065531;28;20048;-49
2022/02/27 01:54:58;;;;;;;0.25;0.20;;;20.10;46.50;;;;;;5066739;28;20166;-51
2022/02/27 01:57:25;;;;;;;0.55;0.10;;;20.00;46.50;;;;;;5064602;28;20091;-47
2022/02/27 01:59:53;;;;;;;0.30;0.15;;;20.00;46.50;;;;;;5047309;28;20032;-48
2022/02/27 02:02:22;;;;;;;0.20;0.10;;;20.00;46.40;;;;;;5068942;28;20048;-50
2022/02/27 02:04:52;;;;;;;1.10;0.28;;;20.00;46.40;;;;;;5051095;28;20116;-50
2022/02/27 02:07:20;;;;;;;0.35;0.10;;;19.90;46.30;;;;;;5070137;28;20153;-50
2022/02/27 02:09:51;;;;;;;2.72;0.10;;;19.90;46.30;;;;;;5068279;28;20044;-46
2022/02/27 02:12:19;;;;;;;0.93;0.25;;;19.90;46.30;;;;;;5034370;28;20052;-47
2022/02/27 02:14:46;;;;;;;1.23;0.20;;;19.90;46.30;;;;;;5050860;28;20111;-46
2022/02/27 02:17:13;;;;;;;0.63;0.55;;;19.90;46.20;;;;;;5050999;28;20419;-46
2022/02/27 02:19:40;;;;;;;0.52;0.10;;;19.90;46.20;;;;;;5069010;28;20048;-49
2022/02/27 02:22:12;;;;;;;2.92;0.10;;;19.90;46.20;;;;;;5052815;28;20511;-48
2022/02/27 02:24:40;;;;;;;0.82;0.10;;;19.90;46.20;;;;;;5050337;28;20048;-51
2022/02/27 02:27:07;;;;;;;1.67;0.25;;;19.80;46.10;;;;;;5068813;28;20040;-47
2022/02/27 02:29:35;;;;;;;0.28;0.20;;;19.80;46.10;;;;;;5050091;28;20043;-50
2022/02/27 02:32:05;;;;;;;0.20;0.10;;;19.80;46.20;;;;;;5049978;28;20125;-50
2022/02/27 02:34:33;;;;;;;0.20;0.10;;;19.80;46.20;;;;;;5051069;28;20053;-48
2022/02/27 02:37:00;;;;;;;0.73;0.10;;;19.80;46.00;;;;;;5066945;28;20511;-52
2022/02/27 02:39:30;;;;;;;2.25;0.10;;;19.70;46.00;;;;;;5049796;28;20140;-50
2022/02/27 02:41:58;;;;;;;0.43;0.10;;;19.80;46.10;;;;;;5050273;28;20118;-49
2022/02/27 02:44:29;;;;;;;2.72;0.10;;;19.70;45.90;;;;;;5068265;28;20037;-50
2022/02/27 02:46:58;;;;;;;2.10;0.10;;;19.70;46.00;;;;;;5050423;28;20041;-50
2022/02/27 02:49:26;;;;;;;1.63;0.10;;;19.70;45.90;;;;;;5051075;28;20044;-52
2022/02/27 02:51:55;;;;;;;0.50;0.10;;;19.70;46.00;;;;;;5067841;28;20037;-52
2022/02/27 02:54:24;;;;;;;0.80;0.10;;;19.70;46.00;;;;;;5050071;28;20125;-52
2022/02/27 02:56:52;;;;;;;0.57;0.10;;;19.70;45.80;;;;;;5067978;28;20036;-51
2022/02/27 02:59:23;;;;;;;1.35;0.10;;;19.60;45.70;;;;;;5068166;28;20043;-51
2022/02/27 03:01:51;;;;;;;1.15;0.28;;;19.60;45.60;;;;;;5064725;28;20041;-52
2022/02/27 03:04:18;;;;;;;6.38;0.10;;;19.60;45.70;;;;;;5070049;28;20782;-47
2022/02/27 03:06:45;;;;;;;1.00;0.38;;;19.60;45.70;;;;;;5068276;28;20064;-47
2022/02/27 03:09:13;;;;;;;0.57;0.10;;;19.60;45.70;;;;;;5067525;28;20040;-48
2022/02/27 03:11:40;;;;;;;0.45;0.10;;;19.50;45.80;;;;;;5067204;28;20044;-47
2022/02/27 03:14:08;;;;;;;1.08;0.10;;;19.60;45.90;;;;;;5067989;28;20075;-44
2022/02/27 03:16:36;;;;;;;0.95;0.10;;;19.60;45.90;;;;;;5067707;28;20122;-48
2022/02/27 03:19:03;;;;;;;1.23;0.20;;;19.50;45.80;;;;;;5069595;28;20048;-50
2022/02/27 03:21:30;;;;;;;1.92;0.13;;;19.50;45.70;;;;;;5067749;28;20123;-44
2022/02/27 03:23:57;;;;;;;1.75;0.10;;;19.50;45.80;;;;;;5049146;28;20803;-48
2022/02/27 03:26:24;;;;;;;1.50;0.13;;;19.50;45.70;;;;;;5067649;28;20467;-47
2022/02/27 03:28:53;;;;;;;1.17;0.13;;;19.50;45.70;;;;;;5067782;28;20094;-46
2022/02/27 03:31:22;;;;;;;2.50;0.10;;;19.40;45.70;;;;;;5068409;28;20041;-47
2022/02/27 03:33:49;;;;;;;1.05;0.20;;;19.40;45.60;;;;;;5068591;28;20048;-50
2022/02/27 03:36:16;;;;;;;1.08;0.20;;;19.40;45.50;;;;;;5067471;28;20513;-50
2022/02/27 03:38:44;;;;;;;0.65;0.10;;;19.40;45.50;;;;;;5066459;28;20072;-46
2022/02/27 03:41:11;;;;;;;0.30;0.10;;;19.40;45.60;;;;;;5067502;28;20044;-48
2022/02/27 03:43:38;;;;;;;3.90;0.38;;;19.40;45.70;;;;;;5049222;28;20052;-46
2022/02/27 03:46:05;;;;;;;1.02;0.63;;;19.40;45.60;;;;;;5068866;28;20050;-48
2022/02/27 03:48:35;;;;;;;0.82;0.10;;;19.40;46.20;;;;;;5067438;28;20045;-49
2022/02/27 03:51:02;;;;;;;1.17;0.10;;;19.40;46.20;;;;;;5067277;28;20056;-45
2022/02/27 03:53:29;;;;;;;0.45;0.10;;;19.30;45.40;;;;;;5066822;28;20064;-46
2022/02/27 03:55:56;;;;;;;3.22;0.10;;;19.30;45.60;;;;;;5067123;28;20512;-45
2022/02/27 03:58:23;;;;;;;0.30;0.10;;;19.30;45.60;;;;;;5067694;28;20611;-44
2022/02/27 04:00:51;;;;;;;0.20;0.10;;;19.30;45.50;;;;;;5066151;28;20040;-44
2022/02/27 04:03:18;;;;;;;1.50;0.38;;;19.30;45.50;;;;;;5066771;28;20102;-46
2022/02/27 04:05:46;;;;;;;0.85;0.10;;;19.30;45.50;;;;;;5067018;28;20508;-47
2022/02/27 04:08:14;;;;;;;0.40;0.10;;;19.20;45.30;;;;;;5066506;28;20037;-48
2022/02/27 04:10:42;;;;;;;0.20;0.10;;;19.20;45.30;;;;;;5066791;28;20132;-49
2022/02/27 04:13:09;;;;;;;0.90;0.10;;;19.20;45.30;;;;;;5068785;28;20599;-45
2022/02/27 04:15:37;;;;;;;3.38;0.30;;;19.20;45.30;;;;;;5066740;28;20094;-47
2022/02/27 04:18:04;;;;;;;0.65;0.15;;;19.20;45.30;;;;;;5064366;28;20602;-47
2022/02/27 04:20:31;;;;;;;9.27;0.20;;;19.20;45.40;;;;;;5066700;28;20810;-48
2022/02/27 04:23:00;;;;;;;1.88;0.10;;;19.20;45.30;;;;;;5065205;28;20505;-47
2022/02/27 04:25:27;;;;;;;0.70;0.10;;;19.20;45.30;;;;;;5066257;28;20106;-48
2022/02/27 04:27:56;;;;;;;0.77;0.22;;;19.20;45.20;;;;;;5068285;28;20148;-45
2022/02/27 04:30:23;;;;;;;1.23;0.20;;;19.20;45.20;;;;;;5066754;28;20606;-48
2022/02/27 04:32:51;;;;;;;4.25;0.20;;;19.20;45.20;;;;;;5066486;28;20094;-53
2022/02/27 04:35:18;;;;;;;0.30;0.10;;;19.20;45.30;;;;;;5066245;28;20047;-48
2022/02/27 04:37:46;;;;;;;0.60;0.10;;;19.20;45.10;;;;;;5065710;28;20767;-46
2022/02/27 04:40:15;;;;;;;0.17;0.10;;;19.20;45.20;;;;;;5067825;28;20048;-47
2022/02/27 04:42:43;;;;;;;0.40;0.10;;;19.10;45.10;;;;;;5065681;28;20513;-46
2022/02/27 04:45:11;;;;;;;0.60;0.50;;;19.10;45.00;;;;;;5066128;28;20532;-49
2022/02/27 04:47:38;;;;;;;0.68;0.10;;;19.10;45.10;;;;;;5065909;28;20576;-50
2022/02/27 04:50:07;;;;;;;0.32;0.10;;;19.10;45.10;;;;;;5065837;28;20527;-47
2022/02/27 04:52:34;;;;;;;0.52;0.10;;;19.10;45.10;;;;;;5066532;28;20045;-48
2022/02/27 04:55:01;;;;;;;2.25;0.10;;;19.10;45.10;;;;;;5065807;28;20584;-49
2022/02/27 04:57:31;;;;;;;1.88;0.20;;;19.10;45.00;;;;;;5066004;28;20051;-51
2022/02/27 04:59:58;;;;;;;1.10;0.10;;;19.10;44.90;;;;;;5065816;28;20046;-48
2022/02/27 05:02:25;;;;;;;1.75;0.10;;;19.00;44.90;;;;;;5065494;28;20049;-46
2022/02/27 05:04:53;;;;;;;1.75;0.30;;;19.10;45.10;;;;;;5065799;28;20394;-47
2022/02/27 05:07:20;;;;;;;1.27;0.17;;;19.00;44.80;;;;;;5067280;28;20413;-46
2022/02/27 05:09:47;;;;;;;0.50;0.10;;;19.00;44.90;;;;;;5052704;28;20469;-47
2022/02/27 05:12:14;;;;;;;1.05;0.10;;;19.00;44.90;;;;;;5066068;28;20036;-49
2022/02/27 05:14:42;;;;;;;3.05;0.47;;;19.00;44.90;;;;;;5066366;28;20106;-47
2022/02/27 05:17:10;;;;;;;3.55;0.43;;;19.00;44.80;;;;;;5066176;28;20587;-50
2022/02/27 05:19:38;;;;;;;0.20;0.10;;;19.00;44.70;;;;;;5065648;28;20483;-48
2022/02/27 05:22:05;;;;;;;0.28;0.10;;;19.00;44.90;;;;;;5067305;28;20490;-50
2022/02/27 05:24:32;;;;;;;0.90;0.10;;;19.00;44.70;;;;;;5065806;28;20059;-47
2022/02/27 05:27:00;;;;;;;0.25;0.00;;;18.90;44.60;;;;;;5065750;28;20438;-47
2022/02/27 05:29:27;;;;;;;0.70;0.10;;;18.90;44.70;;;;;;5063214;28;20507;-47
2022/02/27 05:31:56;;;;;;;0.20;0.10;;;18.90;44.70;;;;;;5065830;28;20072;-47
2022/02/27 05:34:23;;;;;;;0.10;0.08;;;19.00;44.70;;;;;;5065976;28;20428;-50
2022/02/27 05:36:50;;;;;;;1.65;0.10;;;18.90;44.60;;;;;;5066807;28;20041;-44
2022/02/27 05:39:17;;;;;;;0.57;0.10;;;18.90;44.60;;;;;;5065127;28;20439;-45
2022/02/27 05:41:44;;;;;;;0.22;0.00;;;18.90;44.60;;;;;;5059377;28;20104;-47
2022/02/27 05:44:12;;;;;;;2.55;0.10;;;18.90;44.50;;;;;;5059125;28;20059;-48
2022/02/27 05:46:39;;;;;;;2.30;0.10;;;18.90;44.50;;;;;;5064456;28;20041;-47
2022/02/27 05:49:07;;;;;;;0.22;0.10;;;18.90;44.70;;;;;;5066943;28;20044;-47
2022/02/27 05:51:35;;;;;;;0.22;0.10;;;18.90;44.70;;;;;;5061466;28;20044;-46
2022/02/27 05:54:03;;;;;;;0.93;0.10;;;18.90;44.60;;;;;;5041968;28;20037;-47
2022/02/27 05:56:30;;;;;;;1.70;0.10;;;18.90;44.70;;;;;;5060143;28;20128;-50
2022/02/27 05:58:57;;;;;;;1.77;0.10;;;18.80;44.70;;;;;;5064534;28;20048;-51
2022/02/27 06:01:24;;;;;;;7.80;0.40;;;18.90;44.80;;;;;;5061957;28;20602;-51
2022/02/27 06:03:52;;;;;;;0.25;0.10;;;18.90;44.90;;;;;;5063000;28;20060;-51
2022/02/27 06:06:20;;;;;;;3.08;0.17;;;18.80;44.70;;;;;;5059644;28;20036;-49
2022/02/27 06:08:48;;;;;;;3.85;0.10;;;18.80;44.80;;;;;;5061247;28;20041;-46
2022/02/27 06:11:15;;;;;;;0.98;0.82;;;18.80;44.80;;;;;;5061764;28;20044;-53
2022/02/27 06:13:42;;;;;;;3.65;0.10;;;18.90;45.10;;;;;;5058397;28;20864;-52
2022/02/27 06:16:10;;;;;;;3.03;0.20;;;18.80;45.00;;;;;;5046159;28;20504;-49
2022/02/27 06:18:37;;;;;;;2.17;0.47;;;18.80;44.90;;;;;;5063838;28;20048;-50
2022/02/27 06:21:05;;;;;;;3.78;0.10;;;18.80;44.90;;;;;;5058845;28;20056;-48
2022/02/27 06:23:34;;;;;;;1.10;0.10;;;18.80;44.80;;;;;;5062753;28;20501;-47
2022/02/27 06:26:01;;;;;;;1.77;0.65;;;18.80;44.80;;;;;;5062009;28;20108;-48
2022/02/27 06:28:29;;;;;;;0.63;0.15;;;18.80;44.80;;;;;;5058528;28;20233;-47
2022/02/27 06:30:57;;;;;;;3.08;0.00;;;18.80;44.80;;;;;;5062204;28;20563;-46
2022/02/27 06:33:25;;;;;;;1.23;0.10;;;18.80;44.90;;;;;;5060778;28;20068;-51
2022/02/27 06:35:52;;;;;;;1.10;0.30;;;18.80;44.90;;;;;;5061989;28;20029;-48
2022/02/27 06:38:19;;;;;;;0.40;0.10;;;18.80;45.10;;;;;;5060842;28;20167;-52
2022/02/27 06:40:48;;;;;;;0.95;0.20;;;18.80;45.10;;;;;;5063507;28;20068;-47
2022/02/27 06:43:15;;;;;;;2.15;0.10;;;18.80;45.00;;;;;;5066274;28;20087;-49
2022/02/27 06:45:43;;;;;;;1.33;0.10;;;18.80;44.90;;;;;;5064219;28;20513;-50
2022/02/27 06:48:10;;;;;;;2.58;0.20;;;18.80;45.10;;;;;;5051371;28;20099;-51
2022/02/27 06:50:38;;;;;;;4.47;0.50;;;18.80;45.20;;;;;;5050746;28;20465;-47
2022/02/27 06:53:06;;;;;;;2.08;0.20;;;18.70;45.10;;;;;;5051320;28;20052;-50
2022/02/27 06:55:33;;;;;;;0.80;0.22;;;18.80;45.20;;;;;;5051453;28;20436;-47
2022/02/27 06:58:02;;;;;;;1.95;0.10;;;18.80;45.20;;;;;;5070131;28;20044;-48
2022/02/27 07:00:29;;;;;;;2.53;0.30;;;18.70;45.10;;;;;;5069083;28;20576;-48
2022/02/27 07:02:57;;;;;;;9.45;0.60;;;18.80;45.20;;;;;;5066872;28;20044;-48
2022/02/27 07:05:24;;;;;;;13.52;0.38;;;18.80;47.70;;;;;;5067496;28;20114;-49
2022/02/27 07:07:51;;;;;;;9.38;1.80;;;18.80;48.60;;;;;;5066366;28;20098;-49
2022/02/27 07:10:18;;;;;;;12.35;0.80;;;18.80;49.30;;;;;;5069234;28;20492;-48
2022/02/27 07:12:47;;;;;;;5.82;0.52;;;18.80;49.60;;;;;;5068503;28;20685;-50
2022/02/27 07:15:16;;;;;;;6.28;0.20;;;18.80;49.70;;;;;;5067332;28;20043;-49
2022/02/27 07:17:43;;;;;;;5.07;0.65;;;18.80;49.80;;;;;;5068401;28;20509;-50
2022/02/27 07:20:11;;;;;;;4.15;0.40;;;18.80;49.90;;;;;;5050324;28;20047;-47
2022/02/27 07:22:38;;;;;;;5.68;0.43;;;18.90;49.90;;;;;;5049847;28;20052;-50
2022/02/27 07:25:07;;;;;;;5.65;0.20;;;18.80;49.90;;;;;;5069385;28;20051;-51
2022/02/27 07:27:35;;;;;;;5.70;0.20;;;18.80;50.00;;;;;;5067983;28;20040;-46
2022/02/27 07:30:03;;;;;;;8.00;0.38;;;18.80;50.30;;;;;;5067227;28;20036;-49
2022/02/27 07:32:32;;;;;;;2.83;0.20;;;18.80;50.00;;;;;;5067705;28;20032;-49
2022/02/27 07:34:59;;;;;;;7.80;0.40;;;18.80;49.80;;;;;;5049525;28;20505;-49
2022/02/27 07:37:26;;;;;;;4.63;0.25;;;18.80;49.70;;;;;;5067959;28;20039;-46
2022/02/27 07:39:53;;;;;;;4.05;1.05;;;18.90;49.80;;;;;;5068152;28;20040;-49
2022/02/27 07:42:20;;;;;;;3.17;0.13;;;18.80;49.80;;;;;;5067610;28;20044;-51
2022/02/27 07:44:48;;;;;;;2.33;0.28;;;18.80;49.70;;;;;;5066626;28;20043;-52
2022/02/27 07:47:15;;;;;;;7.95;0.32;;;18.80;49.60;;;;;;5067370;28;20553;-52
2022/02/27 07:49:43;;;;;;;0.95;0.20;;;18.80;49.60;;;;;;5067583;28;20782;-49
2022/02/27 07:52:10;;;;;;;2.47;0.10;;;18.90;49.60;;;;;;5068761;28;20060;-50
2022/02/27 07:54:37;;;;;;;2.13;0.20;;;18.90;49.60;;;;;;5049010;28;20041;-51
2022/02/27 07:57:04;;;;;;;2.55;0.17;;;18.80;49.50;;;;;;5067262;28;20047;-49
2022/02/27 07:59:31;;;;;;;3.08;0.20;;;18.90;49.50;;;;;;5066396;28;20052;-49
2022/02/27 08:01:58;;;;;;;1.73;0.10;;;18.90;49.40;;;;;;5066856;28;20519;-49
2022/02/27 08:04:25;;;;;;;1.30;0.70;;;18.90;49.40;;;;;;5067852;28;20055;-50
2022/02/27 08:06:54;;;;;;;1.35;0.45;;;18.90;49.20;;;;;;5067487;28;20037;-47
2022/02/27 08:09:21;;;;;;;1.58;0.10;;;18.90;49.10;;;;;;5066825;28;20041;-53
2022/02/27 08:11:48;;;;;;;0.20;0.20;;;18.90;49.00;;;;;;5048732;28;20044;-53
2022/02/27 08:14:15;;;;;;;0.90;0.52;;;18.90;48.90;;;;;;5066635;28;20044;-53
2022/02/27 08:16:45;;;;;;;2.40;0.10;;;18.90;48.80;;;;;;5066617;28;20036;-52
2022/02/27 08:19:12;;;;;;;1.17;0.30;;;18.90;48.80;;;;;;5068558;28;20040;-52
2022/02/27 08:21:39;;;;;;;1.77;0.10;;;18.90;48.70;;;;;;5065816;28;20396;-53
2022/02/27 08:24:10;;;;;;;2.30;0.50;;;18.90;48.60;;;;;;5066705;28;20040;-51
2022/02/27 08:26:38;;;;;;;3.67;0.20;;;18.90;48.50;;;;;;5066308;28;20037;-50
2022/02/27 08:29:06;;;;;;;1.40;0.10;;;18.90;48.40;;;;;;5066678;28;20047;-50
2022/02/27 08:31:35;;;;;;;0.98;0.30;;;18.90;48.40;;;;;;5066917;28;20044;-50
2022/02/27 08:34:02;;;;;;;4.18;0.50;;;18.90;48.30;;;;;;5066647;28;20032;-52
2022/02/27 08:36:29;;;;;;;1.50;0.10;;;19.00;48.30;;;;;;5048312;28;20055;-53
2022/02/27 08:38:59;;;;;;;1.38;0.10;;;19.00;48.10;;;;;;5065809;28;20049;-51
2022/02/27 08:41:27;;;;;;;0.28;0.10;;;19.00;48.00;;;;;;5065943;28;20602;-52
2022/02/27 08:43:54;;;;;;;0.70;0.10;;;19.00;48.00;;;;;;5066123;28;20032;-51
2022/02/27 08:46:22;;;;;;;4.60;0.10;;;19.00;47.90;;;;;;5067044;28;20050;-53
2022/02/27 08:48:50;;;;;;;2.25;1.10;;;19.00;47.80;;;;;;5066847;28;20043;-54
2022/02/27 08:51:17;;;;;;;2.58;0.10;;;19.00;47.70;;;;;;5065408;28;20040;-51
2022/02/27 08:53:44;;;;;;;4.22;0.25;;;19.00;47.60;;;;;;5065903;28;20037;-54
2022/02/27 08:56:11;;;;;;;0.50;0.10;;;19.00;47.50;;;;;;5065755;28;20048;-51
2022/02/27 08:58:40;;;;;;;0.95;0.20;;;19.00;47.30;;;;;;5066167;28;20044;-52
2022/02/27 09:01:07;;;;;;;1.65;0.20;;;19.00;47.20;;;;;;5067755;28;20045;-52
2022/02/27 09:03:34;;;;;;;0.82;0.10;;;19.00;47.10;;;;;;5065755;28;20045;-52
2022/02/27 09:06:01;;;;;;;1.13;0.10;;;19.00;47.10;;;;;;5065803;28;20509;-54
2022/02/27 09:08:28;;;;;;;0.70;0.20;;;19.00;47.00;;;;;;5065475;28;20041;-49
2022/02/27 09:10:55;;;;;;;2.97;0.50;;;19.10;47.00;;;;;;5065302;28;20529;-52
2022/02/27 09:13:22;;;;;;;4.85;1.20;;;19.10;46.80;;;;;;5066636;28;20531;-50
2022/02/27 09:15:51;;;;;;;4.47;0.35;;;19.10;46.80;;;;;;5067034;28;20101;-50
2022/02/27 09:18:18;;;;;;;2.38;0.40;;;19.10;46.70;;;;;;5065596;28;20496;-49
2022/02/27 09:20:45;;;;;;;1.85;0.70;;;19.10;46.70;;;;;;5065523;28;20135;-53
2022/02/27 09:23:12;;;;;;;1.77;0.17;;;19.10;46.60;;;;;;5065891;28;20444;-47
2022/02/27 09:25:39;;;;;;;3.40;0.40;;;19.10;46.40;;;;;;5065363;28;20052;-52
2022/02/27 09:28:06;;;;;;;1.60;0.30;;;19.10;46.40;;;;;;5067532;28;20795;-48
2022/02/27 09:30:33;;;;;;;2.15;0.30;;;19.10;46.90;;;;;;5065583;28;20060;-50
2022/02/27 09:33:03;;;;;;;2.58;0.30;;;19.10;46.20;;;;;;5064350;28;20047;-49
2022/02/27 09:35:30;;;;;;;0.75;0.22;;;19.10;46.10;;;;;;5065878;28;20567;-48
2022/02/27 09:37:59;;;;;;;1.20;0.30;;;19.10;46.10;;;;;;5065594;28;20044;-51
2022/02/27 09:40:26;;;;;;;2.13;0.30;;;19.10;46.00;;;;;;5065573;28;20048;-49
2022/02/27 09:42:54;;;;;;;2.17;0.20;;;19.10;45.90;;;;;;5067051;28;20047;-50
2022/02/27 09:45:23;;;;;;;1.60;0.85;;;19.20;45.90;;;;;;5065283;28;20052;-51
2022/02/27 09:47:53;;;;;;;2.25;0.20;;;19.10;45.80;;;;;;5065323;28;20032;-51
2022/02/27 09:50:22;;;;;;;3.03;0.50;;;19.10;45.70;;;;;;5064297;28;20072;-53
2022/02/27 09:52:50;;;;;;;1.88;0.50;;;19.20;45.70;;;;;;5065535;28;20070;-49
2022/02/27 09:55:18;;;;;;;1.15;0.20;;;19.20;45.60;;;;;;5066934;28;20063;-53
2022/02/27 09:57:46;;;;;;;1.33;0.30;;;19.20;45.50;;;;;;5065094;28;20051;-51
2022/02/27 10:00:16;;;;;;;0.82;0.30;;;19.20;45.50;;;;;;5064959;28;20044;-52
2022/02/27 10:03:08;;;;;;;3.42;0.88;;;19.20;45.40;;;;;;5065236;28;20045;-51
2022/02/27 10:05:38;;;;;;;1.52;0.63;;;19.20;45.20;;;;;;5061825;28;20041;-49
2022/02/27 10:08:08;;;;;;;0.80;0.20;;;19.20;45.20;;;;;;5065541;28;20068;-54
2022/02/27 10:10:36;;;;;;;0.75;0.20;;;19.20;45.10;;;;;;5064995;28;20048;-51
2022/02/27 10:13:06;;;;;;;1.73;0.20;;;19.20;45.10;;;;;;5046523;28;20481;-52
2022/02/27 10:15:33;;;;;;;2.00;0.55;;;19.20;45.00;;;;;;5065252;28;20056;-54
2022/02/27 10:18:13;;;;;;;0.60;0.30;;;19.30;44.90;;;;;;5064644;28;20052;-52
2022/02/27 10:20:42;;;;;;;0.85;0.20;;;19.30;44.80;;;;;;5064998;28;20040;-53
2022/02/27 10:23:10;;;;;;;1.52;0.10;;;19.30;44.70;;;;;;5068755;28;20578;-54
2022/02/27 10:25:40;;;;;;;1.40;0.60;;;19.30;44.70;;;;;;5068610;28;20036;-48
2022/02/27 10:28:07;;;;;;;1.73;0.30;;;19.30;44.60;;;;;;5070875;28;20055;-54
2022/02/27 10:30:36;;;;;;;0.30;0.10;;;19.30;44.50;;;;;;5068722;28;20041;-48
2022/02/27 10:33:04;;;;;;;1.48;0.20;;;19.30;44.40;;;;;;5068951;28;20053;-47
2022/02/27 10:35:45;;;;;;;2.42;0.50;;;19.40;44.40;;;;;;5068050;28;20047;-50
2022/02/27 10:38:15;;;;;;;0.68;0.20;;;19.40;44.30;;;;;;5068056;28;20811;-51
2022/02/27 10:40:46;;;;;;;1.30;0.30;;;19.40;44.20;;;;;;5068657;28;20043;-52
2022/02/27 10:43:14;;;;;;;2.40;0.43;;;19.40;44.20;;;;;;5070720;28;20127;-52
2022/02/27 10:45:43;;;;;;;1.45;0.20;;;19.50;44.10;;;;;;5068210;28;20045;-50
2022/02/27 10:48:14;;;;;;;0.80;0.10;;;19.50;44.00;;;;;;5067905;28;20044;-53
2022/02/27 10:50:42;;;;;;;2.25;0.40;;;19.50;43.90;;;;;;5061846;28;20036;-51
2022/02/27 10:53:13;;;;;;;0.30;0.20;;;19.50;43.90;;;;;;5050086;28;20060;-50
2022/02/27 10:55:40;;;;;;;0.95;0.20;;;19.50;43.70;;;;;;5068167;28;20498;-51
2022/02/27 10:58:07;;;;;;;1.98;0.17;;;19.60;43.60;;;;;;5070227;28;20048;-48
2022/02/27 11:00:36;;;;;;;0.47;0.13;;;19.70;43.50;;;;;;5066782;28;20525;-52
2022/02/27 11:03:05;;;;;;;3.33;0.50;;;19.70;43.40;;;;;;5062488;28;20132;-49
2022/02/27 11:05:33;;;;;;;0.30;0.10;;;19.80;43.30;;;;;;5064336;28;20066;-52
2022/02/27 11:08:02;;;;;;;1.45;0.20;;;19.80;43.20;;;;;;5068083;28;20052;-49
2022/02/27 11:10:32;;;;;;;1.27;0.20;;;19.90;43.10;;;;;;5068253;28;20618;-51
2022/02/27 11:13:01;;;;;;;0.43;0.10;;;19.90;43.00;;;;;;5069577;28;20094;-50
2022/02/27 11:15:28;;;;;;;1.38;0.43;;;19.90;42.90;;;;;;5068007;28;20052;-51
2022/02/27 11:17:55;;;;;;;0.50;0.20;;;20.00;42.80;;;;;;5067856;28;20477;-46
2022/02/27 11:20:24;;;;;;;0.65;0.20;;;20.00;42.70;;;;;;5068270;28;20033;-51
2022/02/27 11:22:54;;;;;;;1.05;0.10;;;20.10;42.70;;;;;;5062187;28;20045;-52
2022/02/27 11:25:22;;;;;;;1.23;0.20;;;20.10;42.60;;;;;;5065676;28;20463;-50
2022/02/27 11:27:53;;;;;;;0.60;0.10;;;20.20;42.60;;;;;;5069097;28;20698;-53
2022/02/27 11:30:21;;;;;;;0.20;0.10;;;20.20;42.40;;;;;;5049772;28;20650;-52
2022/02/27 11:32:51;;;;;;;0.75;0.10;;;20.30;42.30;;;;;;5067327;28;20036;-47
2022/02/27 11:35:40;;;;;;;1.45;0.55;;;20.40;42.30;;;;;;5067982;28;20036;-52
2022/02/27 11:38:08;;;;;;;2.22;0.73;;;20.50;42.10;;;;;;5065850;28;20118;-51
2022/02/27 11:40:47;;;;;;;0.90;0.20;;;20.50;42.10;;;;;;5067856;28;20044;-52
2022/02/27 11:43:38;;;;;;;1.30;0.30;;;20.50;41.90;;;;;;5069287;28;20521;-52
2022/02/27 11:46:06;;;;;;;3.13;0.20;;;20.60;41.90;;;;;;5049813;28;20074;-50
2022/02/27 11:48:55;;;;;;;0.40;0.10;;;20.60;41.90;;;;;;5067275;28;20044;-50
2022/02/27 11:52:03;;;;;;;1.02;0.20;;;20.70;41.80;;;;;;5067102;28;20045;-53
2022/02/27 11:54:41;;;;;;;0.40;0.40;;;20.80;41.70;;;;;;5066989;28;20075;-52
2022/02/27 11:57:15;;;;;;;2.38;0.20;;;20.80;42.30;;;;;;5066989;28;20052;-52
2022/02/27 12:00:06;;;;;;;0.82;0.10;;;20.90;41.70;;;;;;5067045;28;20039;-53
2022/02/27 12:02:39;;;;;;;0.80;0.10;;;20.90;41.50;;;;;;5063456;28;20131;-53
2022/02/27 12:05:09;;;;;;;0.73;0.10;;;21.00;41.50;;;;;;5066757;28;20714;-53
2022/02/27 12:08:05;;;;;;;0.85;0.10;;;21.00;41.40;;;;;;5066428;28;20044;-48
2022/02/27 12:10:34;;;;;;;0.50;0.20;;;21.10;41.30;;;;;;5065954;28;20064;-53
2022/02/27 12:13:02;;;;;;;0.50;0.10;;;21.20;41.30;;;;;;5068633;28;20049;-54
2022/02/27 12:15:34;;;;;;;2.35;0.45;;;21.20;41.20;;;;;;5067060;28;20124;-53
2022/02/27 12:18:05;;;;;;;0.35;0.10;;;21.30;41.10;;;;;;5066986;28;20052;-54
2022/02/27 12:20:50;;;;;;;1.95;0.50;;;21.30;41.00;;;;;;5066413;28;20040;-52
2022/02/27 12:23:47;;;;;;;1.90;0.30;;;21.40;40.90;;;;;;5066919;28;20457;-53
2022/02/27 12:26:48;;;;;;;0.10;0.10;;;21.50;40.90;;;;;;5061543;28;20032;-52
2022/02/27 12:29:40;;;;;;;2.15;0.10;;;21.50;40.80;;;;;;5003980;28;20065;-54
2022/02/27 12:32:14;;;;;;;2.10;0.10;;;21.50;40.80;;;;;;5004413;28;20049;-52
2022/02/27 12:34:43;;;;;;;1.73;0.10;;;21.60;40.80;;;;;;5003018;28;20110;-49
2022/02/27 12:37:11;;;;;;;0.40;0.20;;;21.60;40.80;;;;;;5006256;28;20140;-49
2022/02/27 12:39:41;;;;;;;0.75;0.10;;;21.70;40.70;;;;;;5004027;28;20092;-51
2022/02/27 12:42:11;;;;;;;0.30;0.20;;;21.80;40.70;;;;;;5003883;28;20694;-52
2022/02/27 12:44:41;;;;;;;0.65;0.20;;;21.80;40.50;;;;;;5003362;28;20057;-51
2022/02/27 12:47:10;;;;;;;1.30;0.20;;;21.90;40.50;;;;;;5003983;28;20418;-52
2022/02/27 12:52:26;;;;;;;2.60;0.47;;;22.00;40.40;;;;;;5001175;28;20534;-51
2022/02/27 12:54:55;;;;;;;4.25;0.10;;;22.00;40.30;;;;;;5005403;28;20056;-48
2022/02/27 12:57:23;;;;;;;1.65;0.80;;;22.00;40.20;;;;;;5003613;28;20045;-50
2022/02/27 12:59:52;;;;;;;2.03;0.10;;;22.10;40.20;;;;;;5003657;28;20128;-47